Map

Track Data

SID SEASON NUMBER BASIN SUBBASIN NAME ISO_TIME NATURE LAT LON WMO_WIND WMO_PRES WMO_AGENCY TRACK_TYPE DIST2LAND LANDFALL IFLAG USA_AGENCY USA_ATCF_ID USA_LAT USA_LON USA_RECORD USA_STATUS USA_WIND USA_PRES USA_SSHS USA_R34_NE USA_R34_SE USA_R34_SW USA_R34_NW USA_R50_NE USA_R50_SE USA_R50_SW USA_R50_NW USA_R64_NE USA_R64_SE USA_R64_SW USA_R64_NW USA_POCI USA_ROCI USA_RMW USA_EYE TOKYO_LAT TOKYO_LON TOKYO_GRADE TOKYO_WIND TOKYO_PRES TOKYO_R50_DIR TOKYO_R50_LONG TOKYO_R50_SHORT TOKYO_R30_DIR TOKYO_R30_LONG TOKYO_R30_SHORT TOKYO_LAND CMA_LAT CMA_LON CMA_CAT CMA_WIND CMA_PRES HKO_LAT HKO_LON HKO_CAT HKO_WIND HKO_PRES NEWDELHI_LAT NEWDELHI_LON NEWDELHI_GRADE NEWDELHI_WIND NEWDELHI_PRES NEWDELHI_CI NEWDELHI_DP NEWDELHI_POCI REUNION_LAT REUNION_LON REUNION_TYPE REUNION_WIND REUNION_PRES REUNION_TNUM REUNION_CI REUNION_RMW REUNION_R34_NE REUNION_R34_SE REUNION_R34_SW REUNION_R34_NW REUNION_R50_NE REUNION_R50_SE REUNION_R50_SW REUNION_R50_NW REUNION_R64_NE REUNION_R64_SE REUNION_R64_SW REUNION_R64_NW BOM_LAT BOM_LON BOM_TYPE BOM_WIND BOM_PRES BOM_TNUM BOM_CI BOM_RMW BOM_R34_NE BOM_R34_SE BOM_R34_SW BOM_R34_NW BOM_R50_NE BOM_R50_SE BOM_R50_SW BOM_R50_NW BOM_R64_NE BOM_R64_SE BOM_R64_SW BOM_R64_NW BOM_ROCI BOM_POCI BOM_EYE BOM_POS_METHOD BOM_PRES_METHOD NADI_LAT NADI_LON NADI_CAT NADI_WIND NADI_PRES WELLINGTON_LAT WELLINGTON_LON WELLINGTON_WIND WELLINGTON_PRES DS824_LAT DS824_LON DS824_STAGE DS824_WIND DS824_PRES TD9636_LAT TD9636_LON TD9636_STAGE TD9636_WIND TD9636_PRES TD9635_LAT TD9635_LON TD9635_WIND TD9635_PRES TD9635_ROCI NEUMANN_LAT NEUMANN_LON NEUMANN_CLASS NEUMANN_WIND NEUMANN_PRES MLC_LAT MLC_LON MLC_CLASS MLC_WIND MLC_PRES USA_GUST BOM_GUST BOM_GUST_PER REUNION_GUST REUNION_GUST_PER USA_SEAHGT USA_SEARAD_NE USA_SEARAD_SE USA_SEARAD_SW USA_SEARAD_NW STORM_SPEED STORM_DIR
1997259N13258 1997 83 EP MM NORA 1997-09-16 06:00:00 TS 12.7000 -101.700 25 1004 hurdat_epa main 496 481 O_____________ hurdat_epa EP161997 12.7000 -101.700 TD 25 1004 -1 6 340
1997259N13258 1997 83 EP MM NORA 1997-09-16 09:00:00 TS 12.9575 -101.800 main 471 457 P_____________ EP161997 12.9575 -101.800 TD 27 1003 -1 5 339
1997259N13258 1997 83 EP MM NORA 1997-09-16 12:00:00 TS 13.2000 -101.900 30 1003 hurdat_epa main 457 444 O_____________ hurdat_epa EP161997 13.2000 -101.900 TD 30 1003 -1 5 337
1997259N13258 1997 83 EP MM NORA 1997-09-16 15:00:00 TS 13.4150 -102.000 main 444 426 P_____________ EP161997 13.4150 -102.000 TD 32 1002 -1 4 334
1997259N13258 1997 83 EP MM NORA 1997-09-16 18:00:00 TS 13.6000 -102.100 35 1001 hurdat_epa main 426 409 O_____________ hurdat_epa EP161997 13.6000 -102.100 TS 35 1001 0 4 330
1997259N13258 1997 83 EP MM NORA 1997-09-16 21:00:00 TS 13.7725 -102.207 main 409 401 P_____________ EP161997 13.7725 -102.208 TS 37 1000 0 4 327
1997259N13258 1997 83 EP MM NORA 1997-09-17 00:00:00 TS 13.9000 -102.300 40 1000 hurdat_epa main 401 391 O_____________ hurdat_epa EP161997 13.9000 -102.300 TS 40 1000 0 2 322
1997259N13258 1997 83 EP MM NORA 1997-09-17 03:00:00 TS 13.9650 -102.358 main 394 394 P_____________ EP161997 13.9650 -102.358 TS 40 999 0 1 317
1997259N13258 1997 83 EP MM NORA 1997-09-17 06:00:00 TS 14.0000 -102.400 40 998 hurdat_epa main 394 394 O_____________ hurdat_epa EP161997 14.0000 -102.400 TS 40 998 0 1 314
1997259N13258 1997 83 EP MM NORA 1997-09-17 09:00:00 TS 14.0425 -102.443 main 394 388 P_____________ EP161997 14.0425 -102.443 TS 45 997 0 1 317
1997259N13258 1997 83 EP MM NORA 1997-09-17 12:00:00 TS 14.1000 -102.500 50 996 hurdat_epa main 388 377 O_____________ hurdat_epa EP161997 14.1000 -102.500 TS 50 996 0 2 319
1997259N13258 1997 83 EP MM NORA 1997-09-17 15:00:00 TS 14.2075 -102.592 main 382 372 P_____________ EP161997 14.2075 -102.592 TS 52 995 0 3 316
1997259N13258 1997 83 EP MM NORA 1997-09-17 18:00:00 TS 14.3000 -102.700 55 994 hurdat_epa main 376 376 O_____________ hurdat_epa EP161997 14.3000 -102.700 TS 55 994 0 2 299
1997259N13258 1997 83 EP MM NORA 1997-09-17 21:00:00 TS 14.3150 -102.793 main 381 381 P_____________ EP161997 14.3150 -102.793 TS 55 992 0 2 270
1997259N13258 1997 83 EP MM NORA 1997-09-18 00:00:00 TS 14.3000 -102.900 55 990 hurdat_epa main 387 387 O_____________ hurdat_epa EP161997 14.3000 -102.900 TS 55 990 0 2 270
1997259N13258 1997 83 EP MM NORA 1997-09-18 03:00:00 TS 14.3150 -103.042 main 392 392 P_____________ EP161997 14.3150 -103.042 TS 57 990 0 3 270
1997259N13258 1997 83 EP MM NORA 1997-09-18 06:00:00 TS 14.3000 -103.200 60 990 hurdat_epa main 404 404 O_____________ hurdat_epa EP161997 14.3000 -103.200 TS 60 990 0 3 249
1997259N13258 1997 83 EP MM NORA 1997-09-18 09:00:00 TS 14.2000 -103.358 main 425 425 P_____________ EP161997 14.2000 -103.358 TS 67 985 1 4 236
1997259N13258 1997 83 EP MM NORA 1997-09-18 12:00:00 TS 14.1000 -103.500 75 980 hurdat_epa main 440 440 O_____________ hurdat_epa EP161997 14.1000 -103.500 HU 75 980 1 3 242
1997259N13258 1997 83 EP MM NORA 1997-09-18 15:00:00 TS 14.0700 -103.608 main 447 447 P_____________ EP161997 14.0700 -103.607 HU 82 975 1 2 270
1997259N13258 1997 83 EP MM NORA 1997-09-18 18:00:00 TS 14.1000 -103.700 90 970 hurdat_epa main 450 444 O_____________ hurdat_epa EP161997 14.1000 -103.700 HU 90 970 2 2 302
1997259N13258 1997 83 EP MM NORA 1997-09-18 21:00:00 TS 14.1925 -103.807 main 444 436 P_____________ EP161997 14.1925 -103.807 HU 90 971 2 3 316
1997259N13258 1997 83 EP MM NORA 1997-09-19 00:00:00 TS 14.3000 -103.900 90 972 hurdat_epa main 436 426 O_____________ hurdat_epa EP161997 14.3000 -103.900 HU 90 972 2 2 319
1997259N13258 1997 83 EP MM NORA 1997-09-19 03:00:00 TS 14.3575 -103.958 main 429 429 P_____________ EP161997 14.3575 -103.958 HU 87 972 2 1 317
1997259N13258 1997 83 EP MM NORA 1997-09-19 06:00:00 TS 14.4000 -104.000 85 973 hurdat_epa main 429 429 O_____________ hurdat_epa EP161997 14.4000 -104.000 HU 85 973 2 1 318
1997259N13258 1997 83 EP MM NORA 1997-09-19 09:00:00 TS 14.4500 -104.050 main 422 422 P_____________ EP161997 14.4500 -104.050 HU 82 973 1 1 317
1997259N13258 1997 83 EP MM NORA 1997-09-19 12:00:00 TS 14.5000 -104.100 80 974 hurdat_epa main 422 422 O_____________ hurdat_epa EP161997 14.5000 -104.100 HU 80 974 1 1 321
1997259N13258 1997 83 EP MM NORA 1997-09-19 15:00:00 TS 14.5425 -104.135 main 422 412 P_____________ EP161997 14.5425 -104.135 HU 80 975 1 1 317
1997259N13258 1997 83 EP MM NORA 1997-09-19 18:00:00 TS 14.6000 -104.200 80 976 hurdat_epa main 415 408 O_____________ hurdat_epa EP161997 14.6000 -104.200 HU 80 976 1 2 308
1997259N13258 1997 83 EP MM NORA 1997-09-19 21:00:00 TS 14.6850 -104.328 main 408 401 P_____________ EP161997 14.6850 -104.328 HU 75 977 1 4 304
1997259N13258 1997 83 EP MM NORA 1997-09-20 00:00:00 TS 14.8000 -104.500 70 978 hurdat_epa main 404 398 O_____________ hurdat_epa EP161997 14.8000 -104.500 HU 70 978 1 4 307
1997259N13258 1997 83 EP MM NORA 1997-09-20 03:00:00 TS 14.9425 -104.678 main 401 383 P_____________ EP161997 14.9425 -104.678 HU 70 980 1 5 308
1997259N13258 1997 83 EP MM NORA 1997-09-20 06:00:00 TS 15.1000 -104.900 70 982 hurdat_epa main 387 381 O_____________ hurdat_epa EP161997 15.1000 -104.900 HU 70 982 1 6 303
1997259N13258 1997 83 EP MM NORA 1997-09-20 09:00:00 TS 15.2575 -105.177 main 381 381 P_____________ EP161997 15.2575 -105.177 HU 67 984 1 7 297
1997259N13258 1997 83 EP MM NORA 1997-09-20 12:00:00 TS 15.4000 -105.500 65 987 hurdat_epa main 388 388 O_____________ hurdat_epa EP161997 15.4000 -105.500 HU 65 987 1 7 291
1997259N13258 1997 83 EP MM NORA 1997-09-20 15:00:00 TS 15.5075 -105.858 main 404 402 P_____________ EP161997 15.5075 -105.858 HU 67 986 1 7 286
1997259N13258 1997 83 EP MM NORA 1997-09-20 18:00:00 TS 15.6000 -106.200 70 985 hurdat_epa main 416 416 O_____________ hurdat_epa EP161997 15.6000 -106.200 HU 70 985 1 6 288
1997259N13258 1997 83 EP MM NORA 1997-09-20 21:00:00 TS 15.6924 -106.458 main 431 425 P_____________ EP161997 15.6924 -106.458 HU 72 982 1 5 293
1997259N13258 1997 83 EP MM NORA 1997-09-21 00:00:00 TS 15.8000 -106.700 75 979 hurdat_epa main 430 425 O_____________ hurdat_epa EP161997 15.8000 -106.700 HU 75 979 1 6 295
1997259N13258 1997 83 EP MM NORA 1997-09-21 03:00:00 TS 15.9275 -106.985 main 436 427 P_____________ EP161997 15.9275 -106.985 HU 85 974 2 7 297
1997259N13258 1997 83 EP MM NORA 1997-09-21 06:00:00 TS 16.1000 -107.300 95 970 hurdat_epa main 436 432 O_____________ hurdat_epa EP161997 16.1000 -107.300 HU 95 970 2 7 303
1997259N13258 1997 83 EP MM NORA 1997-09-21 09:00:00 TS 16.3274 -107.628 main 439 438 P_____________ EP161997 16.3274 -107.628 HU 105 960 3 8 307
1997259N13258 1997 83 EP MM NORA 1997-09-21 12:00:00 TS 16.6000 -108.000 115 950 hurdat_epa main 445 445 O_____________ hurdat_epa EP161997 16.6000 -108.000 HU 115 950 4 10 306
1997259N13258 1997 83 EP MM NORA 1997-09-21 15:00:00 TS 16.9000 -108.442 main 453 453 P_____________ EP161997 16.9000 -108.442 HU 112 950 3 11 305
1997259N13258 1997 83 EP MM NORA 1997-09-21 18:00:00 TS 17.2000 -108.900 110 951 hurdat_epa main 471 471 O_____________ hurdat_epa EP161997 17.2000 -108.900 HU 110 951 3 10 305
1997259N13258 1997 83 EP MM NORA 1997-09-21 21:00:00 TS 17.4724 -109.308 main 488 488 P_____________ EP161997 17.4724 -109.308 HU 110 951 3 9 303
1997259N13258 1997 83 EP MM NORA 1997-09-22 00:00:00 TS 17.7000 -109.700 110 952 hurdat_epa main 511 511 O_____________ hurdat_epa EP161997 17.7000 -109.700 HU 110 952 3 9 296
1997259N13258 1997 83 EP MM NORA 1997-09-22 03:00:00 TS 17.8500 -110.108 main 542 537 P_____________ EP161997 17.8500 -110.108 HU 110 952 3 8 292
1997259N13258 1997 83 EP MM NORA 1997-09-22 06:00:00 TS 18.0000 -110.500 110 953 hurdat_epa main 550 530 O_____________ hurdat_epa EP161997 18.0000 -110.500 HU 110 953 3 8 299
1997259N13258 1997 83 EP MM NORA 1997-09-22 09:00:00 TS 18.2424 -110.865 main 533 505 P_____________ EP161997 18.2424 -110.865 HU 110 954 3 8 307
1997259N13258 1997 83 EP MM NORA 1997-09-22 12:00:00 TS 18.5000 -111.200 110 955 hurdat_epa main 507 491 O_____________ hurdat_epa EP161997 18.5000 -111.200 HU 110 955 3 8 307
1997259N13258 1997 83 EP MM NORA 1997-09-22 15:00:00 TS 18.7074 -111.515 main 494 480 P_____________ EP161997 18.7074 -111.515 HU 107 956 3 7 305
1997259N13258 1997 83 EP MM NORA 1997-09-22 18:00:00 TS 18.9000 -111.800 105 957 hurdat_epa main 484 472 O_____________ hurdat_epa EP161997 18.9000 -111.800 HU 105 957 3 6 307
1997259N13258 1997 83 EP MM NORA 1997-09-22 21:00:00 TS 19.0924 -112.050 main 477 462 P_____________ EP161997 19.0924 -112.050 HU 100 959 3 6 310
1997259N13258 1997 83 EP MM NORA 1997-09-23 00:00:00 TS 19.3000 -112.300 95 961 hurdat_epa main 467 460 O_____________ hurdat_epa EP161997 19.3000 -112.300 HU 95 961 2 7 311
1997259N13258 1997 83 EP MM NORA 1997-09-23 03:00:00 TS 19.5501 -112.607 main 456 454 P_____________ EP161997 19.5501 -112.607 HU 92 967 2 8 311
1997259N13258 1997 83 EP MM NORA 1997-09-23 06:00:00 TS 19.8000 -112.900 90 973 hurdat_epa main 458 456 O_____________ hurdat_epa EP161997 19.8000 -112.900 HU 90 973 2 7 313
1997259N13258 1997 83 EP MM NORA 1997-09-23 09:00:00 TS 19.9999 -113.115 main 456 455 P_____________ EP161997 19.9999 -113.115 HU 85 978 2 6 317
1997259N13258 1997 83 EP MM NORA 1997-09-23 12:00:00 TS 20.2000 -113.300 80 983 hurdat_epa main 455 448 O_____________ hurdat_epa EP161997 20.2000 -113.300 HU 80 983 1 6 319
1997259N13258 1997 83 EP MM NORA 1997-09-23 15:00:00 TS 20.4200 -113.500 main 457 450 P_____________ EP161997 20.4200 -113.500 HU 75 981 1 6 323
1997259N13258 1997 83 EP MM NORA 1997-09-23 18:00:00 TS 20.7000 -113.700 70 980 hurdat_epa main 454 436 O_____________ hurdat_epa EP161997 20.7000 -113.700 HU 70 980 1 8 330
1997259N13258 1997 83 EP MM NORA 1997-09-23 21:00:00 TS 21.0775 -113.900 main 436 409 P_____________ EP161997 21.0775 -113.900 HU 72 979 1 9 335
1997259N13258 1997 83 EP MM NORA 1997-09-24 00:00:00 TS 21.5000 -114.100 75 979 hurdat_epa main 409 385 O_____________ hurdat_epa EP161997 21.5000 -114.100 HU 75 979 1 9 335
1997259N13258 1997 83 EP MM NORA 1997-09-24 03:00:00 TS 21.8925 -114.308 main 385 363 P_____________ EP161997 21.8925 -114.308 HU 75 979 1 9 335
1997259N13258 1997 83 EP MM NORA 1997-09-24 06:00:00 TS 22.3000 -114.500 75 979 hurdat_epa main 363 346 O_____________ hurdat_epa EP161997 22.3000 -114.500 HU 75 979 1 9 338
1997259N13258 1997 83 EP MM NORA 1997-09-24 09:00:00 TS 22.7350 -114.680 main 346 318 P_____________ EP161997 22.7350 -114.680 HU 75 979 1 9 343
1997259N13258 1997 83 EP MM NORA 1997-09-24 12:00:00 TS 23.2000 -114.800 75 979 hurdat_epa main 318 295 O_____________ hurdat_epa EP161997 23.2000 -114.800 HU 75 979 1 9 352
1997259N13258 1997 83 EP MM NORA 1997-09-24 15:00:00 TS 23.6475 -114.823 main 295 271 P_____________ EP161997 23.6475 -114.823 HU 75 979 1 10 1
1997259N13258 1997 83 EP MM NORA 1997-09-24 18:00:00 TS 24.2000 -114.800 75 979 hurdat_epa main 271 234 O_____________ hurdat_epa EP161997 24.2000 -114.800 HU 75 979 1 13 1
1997259N13258 1997 83 EP MM NORA 1997-09-24 21:00:00 TS 24.9475 -114.800 main 234 155 P_____________ EP161997 24.9475 -114.800 HU 75 979 1 16 0
1997259N13258 1997 83 EP MM NORA 1997-09-25 00:00:00 TS 25.8000 -114.800 75 979 hurdat_epa main 155 77 O_____________ hurdat_epa EP161997 25.8000 -114.800 HU 75 979 1 17 1
1997259N13258 1997 83 EP MM NORA 1997-09-25 03:00:00 TS 26.6851 -114.800 main 68 11 P_____________ EP161997 26.7176 -114.800 HU 75 980 1 17 0
1997259N13258 1997 83 EP MM NORA 1997-09-25 06:00:00 TS 27.5000 -114.800 75 981 hurdat_epa main 11 0 O_____________ hurdat_epa EP161997 27.5000 -114.800 HU 75 981 1 16 0
1997259N13258 1997 83 EP MM NORA 1997-09-25 06:30:00 TS 27.6181 -114.800 75 981 hurdat_epa main 0 0 O_____________ hurdat_epa EP161997 27.6000 -114.800 L HU 75 981 1 20 0
1997259N13258 1997 83 EP MM NORA 1997-09-25 09:00:00 TS 28.5183 -114.798 main 59 9 P_____________ EP161997 28.5461 -114.800 HU 72 982 1 22 1
1997259N13258 1997 83 EP MM NORA 1997-09-25 11:00:00 TS 29.2491 -114.798 70 983 hurdat_epa main 9 0 O_____________ hurdat_epa EP161997 29.3000 -114.800 L HU 70 983 1 20 359
1997259N13258 1997 83 EP MM NORA 1997-09-25 12:00:00 TS 29.5000 -114.800 65 984 hurdat_epa main 0 0 O_____________ hurdat_epa EP161997 29.5000 -114.800 HU 65 984 1 19 358
1997259N13258 1997 83 EP MM NORA 1997-09-25 15:00:00 TS 30.4986 -114.857 main 0 0 P_____________ EP161997 30.4591 -114.854 HU 60 987 0 22 358
1997259N13258 1997 83 EP MM NORA 1997-09-25 18:00:00 TS 31.7000 -114.900 55 990 hurdat_epa main 0 0 O_____________ hurdat_epa EP161997 31.7000 -114.900 TS 55 990 0 24 0
1997259N13258 1997 83 EP MM NORA 1997-09-25 21:00:00 TS 32.8574 -114.852 main 0 0 P_____________ EP161997 32.8574 -114.852 TS 42 993 0 23 4
1997259N13258 1997 83 EP MM NORA 1997-09-26 00:00:00 TS 34.0000 -114.700 30 997 hurdat_epa main 0 0 O_____________ hurdat_epa EP161997 34.0000 -114.700 TD 30 997 -1 22 9
1997259N13258 1997 83 EP MM NORA 1997-09-26 03:00:00 TS 35.0727 -114.435 main 0 0 P_____________ EP161997 35.0727 -114.435 TD 27 1000 -1 22 13
1997259N13258 1997 83 EP MM NORA 1997-09-26 06:00:00 TS 36.1000 -114.100 25 1004 hurdat_epa main 0 O_____________ hurdat_epa EP161997 36.1000 -114.100 TD 25 1004 -1 21 15

About IBTrACS Database

This database is a web-friendly format of International Best Track Archive for Climate Stewardship (IBTrACS), a global best track data archive curated by NOAA dating back to 1842.

Updated: 2021-10-21